Airfield :
LOGIN :

Register | Disclaimer

   EN    FR    IT 

 










Legend :    VFR   Marginal VFR   IFR   Intensive IFR   Very Intensive IFR
Visi :
Ceiling :
>= 8 km
>= 3000ft
5 to 8 km
1000 to 3000 ft
1500m to 5 km
500 to 1000 ft
800 to 1500m
200 to 500 ft
< 800m
< 200 ft
Symbols :   Thunderstorms  Fog  Heavy snow  Heavy precipitations  Wind > 20 kt
SIGMETs :     Misc.  Thunderstorms  Icing  Turbulence  Mountain Waves  Volcanic Ashes






- Airport Elevation : 3006 ft
- IATA code : LEN


LELN - Leon

CURRENT METAR :
  • 280800Z 27009KT 9999 FEW019 10/08 Q1020

EXPIRED METARs :
  • 280730Z 28009KT 250V330 9999 SCT028 09/07 Q1019
  • 280700Z 28008KT 260V320 9999 SCT034 09/07 Q1019
  • 280630Z AUTO 27011KT 9999 FEW031 09/07 Q1019
  • 280600Z AUTO 27007KT 9999 FEW031 08/07 Q1019
  • 280530Z AUTO 26007KT 230V290 9999 SCT032 08/07 Q1018

TAF TAF LELN
Valid from the 28 at 09:00 until the 29 at 09:00 UTC


280800Z 2809/2909 VRB05KT 9999 SCT030 TX14/2815Z TN06/2906Z
TEMPO 2809/2814 27010KT



MET'MAP, your aeronautical weather chart ! - Copyright ORBIFLY December 2007 - Disclaimer

ORBIFLY MET'MAP TEAM :

Programming & Development : Alexandra Zaïnal
Concept & original design : Baudouin d'Aumeries
Assistance for programming : Marc-Olivier Méhu
Technical & hardware support : Manuel Goepfert

Contact : metmap@orbifly.com




SOURCES & CREDITS :

   NOAA